Terminal Aerodrome Forecast
Issued by NWS Charleston, WV

Current Version | Previous Version | Text Only | Print | Product List | Glossary Off
Versions: 1 2 3 4 5 6 7 8 9 10 11 12 13 14 15 16 17 18 19 20 21 22 23 24 25 26

000
FTUS41 KRLX 162300
TAFBKW
TAF
KBKW 162328Z 1700/1724 28014G17KT 6SM -SHRA BKN025
     FM170200 29010KT 5SM -DZ BR OVC012
     FM170800 28008KT 5SM -DZ BR OVC008
     FM171300 28009KT P6SM OVC008
     FM171700 29011G19KT P6SM OVC008
     FM172300 29010G17KT P6SM OVC025=

USA.gov is the U.S. government's official web portal to all federal, state and local government web resources and services.